LiveATC.Net - Listen to live air traffic control over the Internet!


ICAO: KLBE  IATA: LBE   Airport: Arnold Palmer Regional Airport
City: Latrobe   State/Province: Pennsylvania
Country: United States   Continent: North America
KLBE METAR Weather: KLBE 221947Z 26010G15KT 10SM SCT060 34/19 A2999
KLBE ADS-B Flight Tracking  (ADSBExchange)
KLBE Flight Activity (FlightAware)
KLBE Airport Info   (iFlightPlanner)
KLBE VFR Sectional Chart   (iFlightPlanner) 
KLBE IFR Low Altitude Chart   (iFlightPlanner) 
KLBE IFR High Altitude Chart   (iFlightPlanner) 

KLBE Ground/Tower
Feed Status: DOWN
Last heard on: 2024-06-17 16:48:05 (5 days 3 hours 31 minutes ago)
Archive Access: KLBE Ground/Tower
FacilityFrequency
Latrobe Ground121.800
Latrobe Tower125.000

NOTICE

Unauthorized use prohibited. See LiveATC.net Terms of Service


Airport/ARTCC Code
Frequency Search
(e.g., 124.400, 128.75)
Site-wide search
 


Browse Feeds
Top 50 Feeds
HF Oceanic Feeds
Coverage Map
Bad Weather Areas

LiveATC FAQ

Increase Coverage

Contact LiveATC.net
Press Inquiries

LiveATC on iPhone
LiveATC on Android

LiveATC Mobile
(Mobile browser)

ATC Audio Archives
Interesting Recordings

LiveATC Forums


Home Page
About LiveATC.net


Terms of Use
Privacy Policy

AIRMETs/SIGMETs

FAA Airport Status
NAS Status
Arrival Demand


Server Software By:
Icecast.org
Liquidsoap